sensor_id;sensor_type;location;lat;lon;timestamp;temperature;humidity
8332;DHT22;4203;48.144;14.118;2023-06-24T00:01:17;15.70;99.90
8332;DHT22;4203;48.144;14.118;2023-06-24T00:03:45;15.70;99.90
8332;DHT22;4203;48.144;14.118;2023-06-24T00:06:14;15.70;99.90
8332;DHT22;4203;48.144;14.118;2023-06-24T00:08:44;15.70;99.90
8332;DHT22;4203;48.144;14.118;2023-06-24T00:11:11;15.60;99.90
8332;DHT22;4203;48.144;14.118;2023-06-24T00:13:39;15.60;99.90
8332;DHT22;4203;48.144;14.118;2023-06-24T00:16:06;15.60;99.90
8332;DHT22;4203;48.144;14.118;2023-06-24T00:18:34;15.60;99.90
8332;DHT22;4203;48.144;14.118;2023-06-24T00:21:02;15.60;99.90
8332;DHT22;4203;48.144;14.118;2023-06-24T00:23:31;15.60;99.90
8332;DHT22;4203;48.144;14.118;2023-06-24T00:26:00;15.60;99.90
8332;DHT22;4203;48.144;14.118;2023-06-24T00:28:28;15.60;99.90
8332;DHT22;4203;48.144;14.118;2023-06-24T00:30:55;15.60;99.90
8332;DHT22;4203;48.144;14.118;2023-06-24T00:33:22;15.60;99.90
8332;DHT22;4203;48.144;14.118;2023-06-24T00:35:50;15.60;99.90
8332;DHT22;4203;48.144;14.118;2023-06-24T00:38:17;15.60;99.90
8332;DHT22;4203;48.144;14.118;2023-06-24T00:40:46;15.60;99.90
8332;DHT22;4203;48.144;14.118;2023-06-24T00:43:13;15.60;99.90
8332;DHT22;4203;48.144;14.118;2023-06-24T00:45:40;15.60;99.90
8332;DHT22;4203;48.144;14.118;2023-06-24T00:48:08;15.60;99.90
8332;DHT22;4203;48.144;14.118;2023-06-24T00:50:35;15.60;99.90
8332;DHT22;4203;48.144;14.118;2023-06-24T00:53:03;15.60;99.90
8332;DHT22;4203;48.144;14.118;2023-06-24T00:55:30;15.60;99.90
8332;DHT22;4203;48.144;14.118;2023-06-24T00:57:59;15.50;99.90
8332;DHT22;4203;48.144;14.118;2023-06-24T01:00:27;15.50;99.90
8332;DHT22;4203;48.144;14.118;2023-06-24T01:02:55;15.40;99.90
8332;DHT22;4203;48.144;14.118;2023-06-24T01:05:23;15.40;99.90
8332;DHT22;4203;48.144;14.118;2023-06-24T01:07:51;15.30;99.90
8332;DHT22;4203;48.144;14.118;2023-06-24T01:10:22;14.60;99.90
8332;DHT22;4203;48.144;14.118;2023-06-24T01:12:50;15.20;99.90
8332;DHT22;4203;48.144;14.118;2023-06-24T01:15:19;15.20;99.90
8332;DHT22;4203;48.144;14.118;2023-06-24T01:17:52;15.20;99.90
8332;DHT22;4203;48.144;14.118;2023-06-24T01:20:25;15.10;99.90
8332;DHT22;4203;48.144;14.118;2023-06-24T01:23:17;15.10;99.90
8332;DHT22;4203;48.144;14.118;2023-06-24T01:26:12;15.10;99.90
8332;DHT22;4203;48.144;14.118;2023-06-24T01:28:53;14.90;99.90
8332;DHT22;4203;48.144;14.118;2023-06-24T01:31:33;14.90;99.90
8332;DHT22;4203;48.144;14.118;2023-06-24T01:34:10;14.90;99.90
8332;DHT22;4203;48.144;14.118;2023-06-24T01:36:41;14.90;99.90
8332;DHT22;4203;48.144;14.118;2023-06-24T01:39:12;15.00;99.90
8332;DHT22;4203;48.144;14.118;2023-06-24T01:41:44;15.00;99.90
8332;DHT22;4203;48.144;14.118;2023-06-24T01:44:13;15.00;99.90
8332;DHT22;4203;48.144;14.118;2023-06-24T01:46:46;15.00;99.90
8332;DHT22;4203;48.144;14.118;2023-06-24T01:49:16;15.00;99.90
8332;DHT22;4203;48.144;14.118;2023-06-24T01:51:47;15.00;99.90
8332;DHT22;4203;48.144;14.118;2023-06-24T01:54:16;14.90;99.90
8332;DHT22;4203;48.144;14.118;2023-06-24T01:56:48;14.90;99.90
8332;DHT22;4203;48.144;14.118;2023-06-24T01:59:17;14.90;99.90
8332;DHT22;4203;48.144;14.118;2023-06-24T02:01:47;14.90;99.90
8332;DHT22;4203;48.144;14.118;2023-06-24T02:04:15;14.90;99.90
8332;DHT22;4203;48.144;14.118;2023-06-24T02:06:43;14.90;99.90
8332;DHT22;4203;48.144;14.118;2023-06-24T02:09:11;14.90;99.90
8332;DHT22;4203;48.144;14.118;2023-06-24T02:11:40;14.80;99.90
8332;DHT22;4203;48.144;14.118;2023-06-24T02:14:08;14.80;99.90
8332;DHT22;4203;48.144;14.118;2023-06-24T02:16:37;14.80;99.90
8332;DHT22;4203;48.144;14.118;2023-06-24T02:19:10;14.80;99.90
8332;DHT22;4203;48.144;14.118;2023-06-24T02:21:39;14.70;99.90
8332;DHT22;4203;48.144;14.118;2023-06-24T02:24:08;14.80;99.90
8332;DHT22;4203;48.144;14.118;2023-06-24T02:26:36;14.80;99.90
8332;DHT22;4203;48.144;14.118;2023-06-24T02:29:08;14.80;99.90
8332;DHT22;4203;48.144;14.118;2023-06-24T02:31:36;14.80;99.90
8332;DHT22;4203;48.144;14.118;2023-06-24T02:34:04;14.80;99.90
8332;DHT22;4203;48.144;14.118;2023-06-24T02:36:33;14.70;99.90
8332;DHT22;4203;48.144;14.118;2023-06-24T02:39:00;14.70;99.90
8332;DHT22;4203;48.144;14.118;2023-06-24T02:41:28;14.70;99.90
8332;DHT22;4203;48.144;14.118;2023-06-24T02:43:55;14.70;99.90
8332;DHT22;4203;48.144;14.118;2023-06-24T02:46:23;14.70;99.90
8332;DHT22;4203;48.144;14.118;2023-06-24T02:48:51;14.70;99.90
8332;DHT22;4203;48.144;14.118;2023-06-24T02:51:19;14.70;99.90
8332;DHT22;4203;48.144;14.118;2023-06-24T02:53:50;14.60;99.90
8332;DHT22;4203;48.144;14.118;2023-06-24T02:56:18;14.60;99.90
8332;DHT22;4203;48.144;14.118;2023-06-24T02:58:47;14.50;99.90
8332;DHT22;4203;48.144;14.118;2023-06-24T03:01:14;14.50;99.90
8332;DHT22;4203;48.144;14.118;2023-06-24T03:03:42;14.50;99.90
8332;DHT22;4203;48.144;14.118;2023-06-24T03:06:15;14.50;99.90
8332;DHT22;4203;48.144;14.118;2023-06-24T03:08:43;14.50;99.90
8332;DHT22;4203;48.144;14.118;2023-06-24T03:11:14;14.60;99.90
8332;DHT22;4203;48.144;14.118;2023-06-24T03:13:41;14.60;99.90
8332;DHT22;4203;48.144;14.118;2023-06-24T03:16:09;14.60;99.90
8332;DHT22;4203;48.144;14.118;2023-06-24T03:18:38;14.60;99.90
8332;DHT22;4203;48.144;14.118;2023-06-24T03:21:06;14.50;99.90
8332;DHT22;4203;48.144;14.118;2023-06-24T03:23:33;14.50;99.90
8332;DHT22;4203;48.144;14.118;2023-06-24T03:26:00;14.50;99.90
8332;DHT22;4203;48.144;14.118;2023-06-24T03:28:30;14.50;99.90
8332;DHT22;4203;48.144;14.118;2023-06-24T03:30:57;14.50;99.90
8332;DHT22;4203;48.144;14.118;2023-06-24T03:33:24;14.50;99.90
8332;DHT22;4203;48.144;14.118;2023-06-24T03:35:52;14.50;99.90
8332;DHT22;4203;48.144;14.118;2023-06-24T03:38:20;14.50;99.90
8332;DHT22;4203;48.144;14.118;2023-06-24T03:40:48;14.50;99.90
8332;DHT22;4203;48.144;14.118;2023-06-24T03:43:15;14.60;99.90
8332;DHT22;4203;48.144;14.118;2023-06-24T03:45:44;14.60;99.90
8332;DHT22;4203;48.144;14.118;2023-06-24T03:48:11;14.60;99.90
8332;DHT22;4203;48.144;14.118;2023-06-24T03:50:38;14.60;99.90
8332;DHT22;4203;48.144;14.118;2023-06-24T03:53:06;14.60;99.90
8332;DHT22;4203;48.144;14.118;2023-06-24T03:55:33;14.60;99.90
8332;DHT22;4203;48.144;14.118;2023-06-24T03:58:00;14.60;99.90
8332;DHT22;4203;48.144;14.118;2023-06-24T04:00:28;14.50;99.90
8332;DHT22;4203;48.144;14.118;2023-06-24T04:02:56;14.50;99.90
8332;DHT22;4203;48.144;14.118;2023-06-24T04:05:26;14.50;99.90
8332;DHT22;4203;48.144;14.118;2023-06-24T04:07:54;14.50;99.90
8332;DHT22;4203;48.144;14.118;2023-06-24T04:10:21;14.50;99.90
8332;DHT22;4203;48.144;14.118;2023-06-24T04:12:49;14.50;99.90
8332;DHT22;4203;48.144;14.118;2023-06-24T04:15:16;14.50;99.90
8332;DHT22;4203;48.144;14.118;2023-06-24T04:17:43;14.50;99.90
8332;DHT22;4203;48.144;14.118;2023-06-24T04:20:13;14.50;99.90
8332;DHT22;4203;48.144;14.118;2023-06-24T04:22:41;14.50;99.90
8332;DHT22;4203;48.144;14.118;2023-06-24T04:25:09;14.50;99.90
8332;DHT22;4203;48.144;14.118;2023-06-24T04:27:37;14.40;99.90
8332;DHT22;4203;48.144;14.118;2023-06-24T04:30:05;14.50;99.90
8332;DHT22;4203;48.144;14.118;2023-06-24T04:32:33;14.50;99.90
8332;DHT22;4203;48.144;14.118;2023-06-24T04:35:01;14.50;99.90
8332;DHT22;4203;48.144;14.118;2023-06-24T04:37:30;14.50;99.90
8332;DHT22;4203;48.144;14.118;2023-06-24T04:39:57;14.50;99.90
8332;DHT22;4203;48.144;14.118;2023-06-24T04:42:24;14.50;99.90
8332;DHT22;4203;48.144;14.118;2023-06-24T04:44:52;14.40;99.90
8332;DHT22;4203;48.144;14.118;2023-06-24T04:47:19;14.50;99.90
8332;DHT22;4203;48.144;14.118;2023-06-24T04:49:46;14.40;99.90
8332;DHT22;4203;48.144;14.118;2023-06-24T04:52:13;14.40;99.90
8332;DHT22;4203;48.144;14.118;2023-06-24T04:54:42;14.40;99.90
8332;DHT22;4203;48.144;14.118;2023-06-24T04:57:15;14.50;99.90
8332;DHT22;4203;48.144;14.118;2023-06-24T04:59:49;14.40;99.90
8332;DHT22;4203;48.144;14.118;2023-06-24T05:02:16;14.50;99.90
8332;DHT22;4203;48.144;14.118;2023-06-24T05:04:44;14.50;99.90
8332;DHT22;4203;48.144;14.118;2023-06-24T05:07:11;14.40;99.90
8332;DHT22;4203;48.144;14.118;2023-06-24T05:09:39;14.40;99.90
8332;DHT22;4203;48.144;14.118;2023-06-24T05:12:08;14.40;99.90
8332;DHT22;4203;48.144;14.118;2023-06-24T05:14:37;14.40;99.90
8332;DHT22;4203;48.144;14.118;2023-06-24T05:17:04;14.40;99.90
8332;DHT22;4203;48.144;14.118;2023-06-24T05:19:32;14.40;99.90
8332;DHT22;4203;48.144;14.118;2023-06-24T05:21:59;14.40;99.90
8332;DHT22;4203;48.144;14.118;2023-06-24T05:24:26;14.40;99.90
8332;DHT22;4203;48.144;14.118;2023-06-24T05:26:54;14.40;99.90
8332;DHT22;4203;48.144;14.118;2023-06-24T05:29:23;14.40;99.90
8332;DHT22;4203;48.144;14.118;2023-06-24T05:31:50;14.40;99.90
8332;DHT22;4203;48.144;14.118;2023-06-24T05:34:17;14.40;99.90
8332;DHT22;4203;48.144;14.118;2023-06-24T05:36:45;14.40;99.90
8332;DHT22;4203;48.144;14.118;2023-06-24T05:39:12;14.40;99.90
8332;DHT22;4203;48.144;14.118;2023-06-24T05:41:40;14.50;99.90
8332;DHT22;4203;48.144;14.118;2023-06-24T05:44:09;14.50;99.90
8332;DHT22;4203;48.144;14.118;2023-06-24T05:46:38;14.50;99.90
8332;DHT22;4203;48.144;14.118;2023-06-24T05:49:05;14.50;99.90
8332;DHT22;4203;48.144;14.118;2023-06-24T05:51:33;14.50;99.90
8332;DHT22;4203;48.144;14.118;2023-06-24T05:54:00;14.50;99.90
8332;DHT22;4203;48.144;14.118;2023-06-24T05:56:27;14.50;99.90
8332;DHT22;4203;48.144;14.118;2023-06-24T05:58:55;14.50;99.90
8332;DHT22;4203;48.144;14.118;2023-06-24T06:01:22;14.50;99.90
8332;DHT22;4203;48.144;14.118;2023-06-24T06:03:51;14.50;99.90
8332;DHT22;4203;48.144;14.118;2023-06-24T06:06:18;14.40;99.90
8332;DHT22;4203;48.144;14.118;2023-06-24T06:08:45;14.40;99.90
8332;DHT22;4203;48.144;14.118;2023-06-24T06:11:12;14.50;99.90
8332;DHT22;4203;48.144;14.118;2023-06-24T06:13:40;14.50;99.90
8332;DHT22;4203;48.144;14.118;2023-06-24T06:16:07;14.40;99.90
8332;DHT22;4203;48.144;14.118;2023-06-24T06:18:34;14.40;99.90
8332;DHT22;4203;48.144;14.118;2023-06-24T06:21:03;14.30;99.90
8332;DHT22;4203;48.144;14.118;2023-06-24T06:23:30;14.30;99.90
8332;DHT22;4203;48.144;14.118;2023-06-24T06:25:58;14.30;99.90
8332;DHT22;4203;48.144;14.118;2023-06-24T06:28:26;14.40;99.90
8332;DHT22;4203;48.144;14.118;2023-06-24T06:30:53;14.40;99.90
8332;DHT22;4203;48.144;14.118;2023-06-24T06:33:20;14.30;99.90
8332;DHT22;4203;48.144;14.118;2023-06-24T06:35:47;14.30;99.90
8332;DHT22;4203;48.144;14.118;2023-06-24T06:38:16;14.30;99.90
8332;DHT22;4203;48.144;14.118;2023-06-24T06:40:43;14.30;99.90
8332;DHT22;4203;48.144;14.118;2023-06-24T06:43:11;14.30;99.90
8332;DHT22;4203;48.144;14.118;2023-06-24T06:45:38;14.40;99.90
8332;DHT22;4203;48.144;14.118;2023-06-24T06:48:05;14.30;99.90
8332;DHT22;4203;48.144;14.118;2023-06-24T06:50:34;14.40;99.90
8332;DHT22;4203;48.144;14.118;2023-06-24T06:53:02;14.40;99.90
8332;DHT22;4203;48.144;14.118;2023-06-24T06:55:31;14.40;99.90
8332;DHT22;4203;48.144;14.118;2023-06-24T06:57:58;14.50;99.90
8332;DHT22;4203;48.144;14.118;2023-06-24T07:00:25;14.50;99.90
8332;DHT22;4203;48.144;14.118;2023-06-24T07:02:53;14.50;99.90
8332;DHT22;4203;48.144;14.118;2023-06-24T07:05:20;14.50;99.90
8332;DHT22;4203;48.144;14.118;2023-06-24T07:07:47;14.50;99.90
8332;DHT22;4203;48.144;14.118;2023-06-24T07:10:16;14.50;99.90
8332;DHT22;4203;48.144;14.118;2023-06-24T07:12:45;14.50;99.90
8332;DHT22;4203;48.144;14.118;2023-06-24T07:15:13;14.60;99.90
8332;DHT22;4203;48.144;14.118;2023-06-24T07:17:40;14.60;99.90
8332;DHT22;4203;48.144;14.118;2023-06-24T07:20:08;14.60;99.90
8332;DHT22;4203;48.144;14.118;2023-06-24T07:22:36;14.70;99.90
8332;DHT22;4203;48.144;14.118;2023-06-24T07:25:04;14.70;99.90
8332;DHT22;4203;48.144;14.118;2023-06-24T07:27:31;14.70;99.90
8332;DHT22;4203;48.144;14.118;2023-06-24T07:30:00;14.70;99.90
8332;DHT22;4203;48.144;14.118;2023-06-24T07:32:27;14.70;99.90
8332;DHT22;4203;48.144;14.118;2023-06-24T07:34:54;14.70;99.90
8332;DHT22;4203;48.144;14.118;2023-06-24T07:37:22;14.80;99.90
8332;DHT22;4203;48.144;14.118;2023-06-24T07:39:50;14.70;99.90
8332;DHT22;4203;48.144;14.118;2023-06-24T07:42:17;14.70;99.90
8332;DHT22;4203;48.144;14.118;2023-06-24T07:44:45;14.70;99.90
8332;DHT22;4203;48.144;14.118;2023-06-24T07:47:14;14.70;99.90
8332;DHT22;4203;48.144;14.118;2023-06-24T07:49:41;14.70;99.90
8332;DHT22;4203;48.144;14.118;2023-06-24T07:52:08;14.70;99.90
8332;DHT22;4203;48.144;14.118;2023-06-24T07:54:35;14.70;99.90
8332;DHT22;4203;48.144;14.118;2023-06-24T07:57:03;14.70;99.90
8332;DHT22;4203;48.144;14.118;2023-06-24T07:59:30;14.80;99.90
8332;DHT22;4203;48.144;14.118;2023-06-24T08:01:58;14.80;99.90
8332;DHT22;4203;48.144;14.118;2023-06-24T08:04:26;14.80;99.90
8332;DHT22;4203;48.144;14.118;2023-06-24T08:06:54;14.80;99.90
8332;DHT22;4203;48.144;14.118;2023-06-24T08:09:21;14.80;99.90
8332;DHT22;4203;48.144;14.118;2023-06-24T08:11:48;14.90;99.90
8332;DHT22;4203;48.144;14.118;2023-06-24T08:14:15;14.90;99.90
8332;DHT22;4203;48.144;14.118;2023-06-24T08:16:43;14.90;99.90
8332;DHT22;4203;48.144;14.118;2023-06-24T08:19:10;14.90;99.90
8332;DHT22;4203;48.144;14.118;2023-06-24T08:21:39;14.90;99.90
8332;DHT22;4203;48.144;14.118;2023-06-24T08:24:06;15.00;99.90
8332;DHT22;4203;48.144;14.118;2023-06-24T08:26:34;15.00;99.90
8332;DHT22;4203;48.144;14.118;2023-06-24T08:29:01;15.00;99.90
8332;DHT22;4203;48.144;14.118;2023-06-24T08:31:29;15.00;99.90
8332;DHT22;4203;48.144;14.118;2023-06-24T08:33:59;15.00;99.90
8332;DHT22;4203;48.144;14.118;2023-06-24T08:36:28;15.10;99.90
8332;DHT22;4203;48.144;14.118;2023-06-24T08:38:57;15.10;99.90
8332;DHT22;4203;48.144;14.118;2023-06-24T08:41:24;15.20;99.90
8332;DHT22;4203;48.144;14.118;2023-06-24T08:43:52;15.10;99.90
8332;DHT22;4203;48.144;14.118;2023-06-24T08:46:20;15.20;99.90
8332;DHT22;4203;48.144;14.118;2023-06-24T08:48:48;15.20;99.90
8332;DHT22;4203;48.144;14.118;2023-06-24T08:51:19;15.10;99.90
8332;DHT22;4203;48.144;14.118;2023-06-24T08:53:48;15.20;99.90
8332;DHT22;4203;48.144;14.118;2023-06-24T08:56:17;15.10;99.90
8332;DHT22;4203;48.144;14.118;2023-06-24T08:58:45;15.10;99.90
8332;DHT22;4203;48.144;14.118;2023-06-24T09:01:12;15.10;99.90
8332;DHT22;4203;48.144;14.118;2023-06-24T09:03:40;15.10;99.90
8332;DHT22;4203;48.144;14.118;2023-06-24T09:06:07;15.10;99.90
8332;DHT22;4203;48.144;14.118;2023-06-24T09:08:34;15.10;99.90
8332;DHT22;4203;48.144;14.118;2023-06-24T09:11:05;15.10;99.90
8332;DHT22;4203;48.144;14.118;2023-06-24T09:13:36;15.10;99.90
8332;DHT22;4203;48.144;14.118;2023-06-24T09:16:12;15.10;99.90
8332;DHT22;4203;48.144;14.118;2023-06-24T09:18:40;15.00;99.90
8332;DHT22;4203;48.144;14.118;2023-06-24T09:21:08;15.00;99.90
8332;DHT22;4203;48.144;14.118;2023-06-24T09:23:37;15.00;99.90
8332;DHT22;4203;48.144;14.118;2023-06-24T09:26:09;15.00;99.90
8332;DHT22;4203;48.144;14.118;2023-06-24T09:28:40;15.00;99.90
8332;DHT22;4203;48.144;14.118;2023-06-24T09:31:08;15.00;99.90
8332;DHT22;4203;48.144;14.118;2023-06-24T09:33:36;15.00;99.90
8332;DHT22;4203;48.144;14.118;2023-06-24T09:36:04;14.90;99.90
8332;DHT22;4203;48.144;14.118;2023-06-24T09:38:35;14.80;99.90
8332;DHT22;4203;48.144;14.118;2023-06-24T09:41:04;14.80;99.90
8332;DHT22;4203;48.144;14.118;2023-06-24T09:43:34;14.80;99.90
8332;DHT22;4203;48.144;14.118;2023-06-24T09:46:04;14.80;99.90
8332;DHT22;4203;48.144;14.118;2023-06-24T09:48:33;14.80;99.90
8332;DHT22;4203;48.144;14.118;2023-06-24T09:51:02;14.80;99.90
8332;DHT22;4203;48.144;14.118;2023-06-24T09:53:30;14.80;99.90
8332;DHT22;4203;48.144;14.118;2023-06-24T09:56:00;14.90;99.90
8332;DHT22;4203;48.144;14.118;2023-06-24T09:58:28;14.80;99.90
8332;DHT22;4203;48.144;14.118;2023-06-24T10:01:03;14.80;99.90
8332;DHT22;4203;48.144;14.118;2023-06-24T10:03:33;14.80;99.90
8332;DHT22;4203;48.144;14.118;2023-06-24T10:06:01;14.80;99.90
8332;DHT22;4203;48.144;14.118;2023-06-24T10:08:30;14.80;99.90
8332;DHT22;4203;48.144;14.118;2023-06-24T10:10:59;14.80;99.90
8332;DHT22;4203;48.144;14.118;2023-06-24T10:13:26;14.70;99.90
8332;DHT22;4203;48.144;14.118;2023-06-24T10:15:55;14.80;99.90
8332;DHT22;4203;48.144;14.118;2023-06-24T10:18:34;14.80;99.90
8332;DHT22;4203;48.144;14.118;2023-06-24T10:21:02;14.90;99.90
8332;DHT22;4203;48.144;14.118;2023-06-24T10:23:40;15.00;99.90
8332;DHT22;4203;48.144;14.118;2023-06-24T10:26:09;15.10;99.90
8332;DHT22;4203;48.144;14.118;2023-06-24T10:29:09;15.20;99.90
8332;DHT22;4203;48.144;14.118;2023-06-24T10:31:53;15.30;99.90
8332;DHT22;4203;48.144;14.118;2023-06-24T10:34:41;15.40;99.90
8332;DHT22;4203;48.144;14.118;2023-06-24T10:37:10;15.50;99.90
8332;DHT22;4203;48.144;14.118;2023-06-24T10:39:55;15.60;99.90
8332;DHT22;4203;48.144;14.118;2023-06-24T10:42:27;15.80;99.90
8332;DHT22;4203;48.144;14.118;2023-06-24T10:44:55;15.90;99.90
8332;DHT22;4203;48.144;14.118;2023-06-24T10:47:23;15.90;99.90
8332;DHT22;4203;48.144;14.118;2023-06-24T10:49:52;16.00;99.90
8332;DHT22;4203;48.144;14.118;2023-06-24T10:52:21;16.10;99.90
8332;DHT22;4203;48.144;14.118;2023-06-24T10:54:49;16.10;99.90
8332;DHT22;4203;48.144;14.118;2023-06-24T10:57:21;16.20;99.90
8332;DHT22;4203;48.144;14.118;2023-06-24T10:59:50;16.30;99.90
8332;DHT22;4203;48.144;14.118;2023-06-24T11:02:18;16.50;99.90
8332;DHT22;4203;48.144;14.118;2023-06-24T11:04:47;16.50;99.90
8332;DHT22;4203;48.144;14.118;2023-06-24T11:07:18;16.70;99.90
8332;DHT22;4203;48.144;14.118;2023-06-24T11:09:48;16.90;99.90
8332;DHT22;4203;48.144;14.118;2023-06-24T11:12:16;17.00;99.90
8332;DHT22;4203;48.144;14.118;2023-06-24T11:14:43;17.10;99.90
8332;DHT22;4203;48.144;14.118;2023-06-24T11:17:11;17.10;99.90
8332;DHT22;4203;48.144;14.118;2023-06-24T11:19:39;17.00;99.90
8332;DHT22;4203;48.144;14.118;2023-06-24T11:22:07;17.00;99.90
8332;DHT22;4203;48.144;14.118;2023-06-24T11:24:36;16.90;99.90
8332;DHT22;4203;48.144;14.118;2023-06-24T11:27:05;16.90;99.90
8332;DHT22;4203;48.144;14.118;2023-06-24T11:29:33;17.00;99.90
8332;DHT22;4203;48.144;14.118;2023-06-24T11:32:01;17.20;99.90
8332;DHT22;4203;48.144;14.118;2023-06-24T11:34:29;17.50;99.90
8332;DHT22;4203;48.144;14.118;2023-06-24T11:36:56;17.80;99.90
8332;DHT22;4203;48.144;14.118;2023-06-24T11:39:25;18.00;99.90
8332;DHT22;4203;48.144;14.118;2023-06-24T11:41:57;18.20;99.90
8332;DHT22;4203;48.144;14.118;2023-06-24T11:44:24;18.40;99.90
8332;DHT22;4203;48.144;14.118;2023-06-24T11:46:52;18.60;99.90
8332;DHT22;4203;48.144;14.118;2023-06-24T11:49:19;18.70;99.90
8332;DHT22;4203;48.144;14.118;2023-06-24T11:51:48;18.90;99.90
8332;DHT22;4203;48.144;14.118;2023-06-24T11:54:17;18.90;99.90
8332;DHT22;4203;48.144;14.118;2023-06-24T11:56:50;19.00;99.90
8332;DHT22;4203;48.144;14.118;2023-06-24T11:59:20;19.10;99.90
8332;DHT22;4203;48.144;14.118;2023-06-24T12:01:55;19.00;99.90
8332;DHT22;4203;48.144;14.118;2023-06-24T12:04:27;19.00;99.90
8332;DHT22;4203;48.144;14.118;2023-06-24T12:06:55;18.80;99.90
8332;DHT22;4203;48.144;14.118;2023-06-24T12:09:23;18.70;99.90
8332;DHT22;4203;48.144;14.118;2023-06-24T12:11:50;18.50;99.90
8332;DHT22;4203;48.144;14.118;2023-06-24T12:14:19;18.40;99.90
8332;DHT22;4203;48.144;14.118;2023-06-24T12:16:46;18.40;99.90
8332;DHT22;4203;48.144;14.118;2023-06-24T12:19:14;18.40;99.90
8332;DHT22;4203;48.144;14.118;2023-06-24T12:21:41;18.40;99.90
8332;DHT22;4203;48.144;14.118;2023-06-24T12:24:08;18.40;99.90
8332;DHT22;4203;48.144;14.118;2023-06-24T12:26:35;18.40;99.90
8332;DHT22;4203;48.144;14.118;2023-06-24T12:29:03;18.40;99.90
8332;DHT22;4203;48.144;14.118;2023-06-24T12:31:32;18.40;99.90
8332;DHT22;4203;48.144;14.118;2023-06-24T12:33:59;18.50;99.90
8332;DHT22;4203;48.144;14.118;2023-06-24T12:36:26;18.70;99.90
8332;DHT22;4203;48.144;14.118;2023-06-24T12:38:53;19.00;99.90
8332;DHT22;4203;48.144;14.118;2023-06-24T12:41:21;19.20;99.90
8332;DHT22;4203;48.144;14.118;2023-06-24T12:43:48;19.50;99.90
8332;DHT22;4203;48.144;14.118;2023-06-24T12:46:15;19.60;99.90
8332;DHT22;4203;48.144;14.118;2023-06-24T12:48:44;19.90;99.90
8332;DHT22;4203;48.144;14.118;2023-06-24T12:51:11;20.30;99.90
8332;DHT22;4203;48.144;14.118;2023-06-24T12:53:38;20.50;99.90
8332;DHT22;4203;48.144;14.118;2023-06-24T12:56:05;20.60;99.90
8332;DHT22;4203;48.144;14.118;2023-06-24T12:58:34;20.60;99.90
8332;DHT22;4203;48.144;14.118;2023-06-24T13:01:01;20.50;99.90
8332;DHT22;4203;48.144;14.118;2023-06-24T13:03:28;20.40;99.90
8332;DHT22;4203;48.144;14.118;2023-06-24T13:05:57;20.10;99.90
8332;DHT22;4203;48.144;14.118;2023-06-24T13:08:24;19.90;99.90
8332;DHT22;4203;48.144;14.118;2023-06-24T13:10:51;19.70;99.90
8332;DHT22;4203;48.144;14.118;2023-06-24T13:13:18;19.60;99.90
8332;DHT22;4203;48.144;14.118;2023-06-24T13:15:46;19.40;99.90
8332;DHT22;4203;48.144;14.118;2023-06-24T13:18:13;19.20;99.90
8332;DHT22;4203;48.144;14.118;2023-06-24T13:20:40;19.00;99.90
8332;DHT22;4203;48.144;14.118;2023-06-24T13:23:10;18.80;99.90
8332;DHT22;4203;48.144;14.118;2023-06-24T13:25:37;18.80;99.90
8332;DHT22;4203;48.144;14.118;2023-06-24T13:28:05;18.80;99.90
8332;DHT22;4203;48.144;14.118;2023-06-24T13:30:33;18.80;99.90
8332;DHT22;4203;48.144;14.118;2023-06-24T13:33:00;18.90;99.90
8332;DHT22;4203;48.144;14.118;2023-06-24T13:35:27;18.80;99.90
8332;DHT22;4203;48.144;14.118;2023-06-24T13:37:54;18.90;99.90
8332;DHT22;4203;48.144;14.118;2023-06-24T13:40:25;19.00;99.90
8332;DHT22;4203;48.144;14.118;2023-06-24T13:42:52;19.20;99.90
8332;DHT22;4203;48.144;14.118;2023-06-24T13:45:19;19.40;99.90
8332;DHT22;4203;48.144;14.118;2023-06-24T13:47:47;19.50;99.90
8332;DHT22;4203;48.144;14.118;2023-06-24T13:50:14;19.80;99.90
8332;DHT22;4203;48.144;14.118;2023-06-24T13:52:41;20.10;99.90
8332;DHT22;4203;48.144;14.118;2023-06-24T13:55:08;20.50;99.90
8332;DHT22;4203;48.144;14.118;2023-06-24T13:57:37;20.60;99.90
8332;DHT22;4203;48.144;14.118;2023-06-24T14:00:06;20.90;99.90
8332;DHT22;4203;48.144;14.118;2023-06-24T14:02:34;21.20;99.90
8332;DHT22;4203;48.144;14.118;2023-06-24T14:05:01;21.70;99.90
8332;DHT22;4203;48.144;14.118;2023-06-24T14:07:29;21.90;99.90
8332;DHT22;4203;48.144;14.118;2023-06-24T14:09:56;22.00;99.90
8332;DHT22;4203;48.144;14.118;2023-06-24T14:12:23;21.90;99.90
8332;DHT22;4203;48.144;14.118;2023-06-24T14:14:52;21.70;99.90
8332;DHT22;4203;48.144;14.118;2023-06-24T14:17:19;21.50;99.90
8332;DHT22;4203;48.144;14.118;2023-06-24T14:19:46;21.60;99.90
8332;DHT22;4203;48.144;14.118;2023-06-24T14:22:14;21.80;99.90
8332;DHT22;4203;48.144;14.118;2023-06-24T14:24:43;22.00;99.90
8332;DHT22;4203;48.144;14.118;2023-06-24T14:27:10;22.10;99.90
8332;DHT22;4203;48.144;14.118;2023-06-24T14:29:37;22.10;99.90
8332;DHT22;4203;48.144;14.118;2023-06-24T14:32:07;22.20;99.90
8332;DHT22;4203;48.144;14.118;2023-06-24T14:34:34;22.40;99.90
8332;DHT22;4203;48.144;14.118;2023-06-24T14:37:01;22.70;99.90
8332;DHT22;4203;48.144;14.118;2023-06-24T14:39:29;22.80;99.90
8332;DHT22;4203;48.144;14.118;2023-06-24T14:41:56;22.80;99.90
8332;DHT22;4203;48.144;14.118;2023-06-24T14:44:23;22.70;99.90
8332;DHT22;4203;48.144;14.118;2023-06-24T14:46:50;22.60;99.90
8332;DHT22;4203;48.144;14.118;2023-06-24T14:49:19;22.50;99.90
8332;DHT22;4203;48.144;14.118;2023-06-24T14:51:46;22.60;99.90
8332;DHT22;4203;48.144;14.118;2023-06-24T14:54:13;22.60;99.90
8332;DHT22;4203;48.144;14.118;2023-06-24T14:56:40;22.50;99.90
8332;DHT22;4203;48.144;14.118;2023-06-24T14:59:07;22.50;99.90
8332;DHT22;4203;48.144;14.118;2023-06-24T15:01:35;22.50;99.90
8332;DHT22;4203;48.144;14.118;2023-06-24T15:04:02;22.40;99.90
8332;DHT22;4203;48.144;14.118;2023-06-24T15:06:31;22.30;99.90
8332;DHT22;4203;48.144;14.118;2023-06-24T15:08:58;22.40;99.90
8332;DHT22;4203;48.144;14.118;2023-06-24T15:11:25;22.50;99.90
8332;DHT22;4203;48.144;14.118;2023-06-24T15:13:52;22.60;99.90
8332;DHT22;4203;48.144;14.118;2023-06-24T15:16:20;22.60;99.90
8332;DHT22;4203;48.144;14.118;2023-06-24T15:18:47;22.60;99.90
8332;DHT22;4203;48.144;14.118;2023-06-24T15:21:16;22.60;99.90
8332;DHT22;4203;48.144;14.118;2023-06-24T15:23:45;22.70;99.90
8332;DHT22;4203;48.144;14.118;2023-06-24T15:26:13;22.80;99.90
8332;DHT22;4203;48.144;14.118;2023-06-24T15:28:40;22.90;99.90
8332;DHT22;4203;48.144;14.118;2023-06-24T15:31:07;22.90;99.90
8332;DHT22;4203;48.144;14.118;2023-06-24T15:33:34;22.90;99.90
8332;DHT22;4203;48.144;14.118;2023-06-24T15:36:02;22.80;99.90
8332;DHT22;4203;48.144;14.118;2023-06-24T15:38:29;22.70;99.90
8332;DHT22;4203;48.144;14.118;2023-06-24T15:40:58;22.60;99.90
8332;DHT22;4203;48.144;14.118;2023-06-24T15:43:25;22.40;99.90
8332;DHT22;4203;48.144;14.118;2023-06-24T15:45:52;22.40;99.90
8332;DHT22;4203;48.144;14.118;2023-06-24T15:48:19;22.30;99.90
8332;DHT22;4203;48.144;14.118;2023-06-24T15:50:46;22.30;99.90
8332;DHT22;4203;48.144;14.118;2023-06-24T15:53:14;22.20;99.90